Time;durP1;ratioP1;P1;durP2;ratioP2;P2;SDS_P1;SDS_P2;PMS_P1;PMS_P2;Temp;Humidity;BMP_temperature;BMP_pressure;BME280_temperature;BME280_humidity;BME280_pressure;Samples;Min_cycle;Max_cycle;Signal;HPM_P1;HPM_P2
2022/10/22 00:00:12;;;;;;;23.10;16.00;;;;;;;;;;5094951;28;20370;-66
2022/10/22 00:02:37;;;;;;;22.95;16.00;;;;;;;;;;5095585;28;20024;-66
2022/10/22 00:05:03;;;;;;;24.00;16.05;;;;;;;;;;5095368;28;20085;-66
2022/10/22 00:07:28;;;;;;;24.48;15.63;;;;;;;;;;5095485;28;20038;-65
2022/10/22 00:09:54;;;;;;;24.05;15.55;;;;;;;;;;5095207;28;20024;-64
2022/10/22 00:12:19;;;;;;;28.00;15.10;;;;;;;;;;5094995;28;20394;-65
2022/10/22 00:14:45;;;;;;;24.25;15.38;;;;;;;;;;5095138;28;20026;-65
2022/10/22 00:17:10;;;;;;;24.52;15.63;;;;;;;;;;5094089;28;20059;-63
2022/10/22 00:19:37;;;;;;;23.40;15.18;;;;;;;;;;5094995;28;20039;-63
2022/10/22 00:22:04;;;;;;;25.13;16.20;;;;;;;;;;5095149;28;20039;-64
2022/10/22 00:24:30;;;;;;;24.33;15.52;;;;;;;;;;5094867;28;20103;-64
2022/10/22 00:26:55;;;;;;;22.08;15.63;;;;;;;;;;5095136;28;20376;-64
2022/10/22 00:29:21;;;;;;;20.95;14.70;;;;;;;;;;5094713;28;20024;-65
2022/10/22 00:31:48;;;;;;;19.65;14.30;;;;;;;;;;5076822;28;20036;-66
2022/10/22 00:34:18;;;;;;;23.00;14.75;;;;;;;;;;5094246;28;20026;-66
2022/10/22 00:36:44;;;;;;;20.98;14.50;;;;;;;;;;5094635;28;20455;-66
2022/10/22 00:39:11;;;;;;;18.90;13.77;;;;;;;;;;5094795;28;20023;-66
2022/10/22 00:41:37;;;;;;;19.45;14.23;;;;;;;;;;5094280;28;20028;-66
2022/10/22 00:44:03;;;;;;;21.83;13.98;;;;;;;;;;5094869;28;20461;-66
2022/10/22 00:46:29;;;;;;;22.15;14.25;;;;;;;;;;5094692;28;20469;-66
2022/10/22 00:48:57;;;;;;;24.58;14.90;;;;;;;;;;5094512;28;20051;-66
2022/10/22 00:51:24;;;;;;;26.60;15.90;;;;;;;;;;5094758;28;20031;-66
2022/10/22 00:53:54;;;;;;;23.40;14.82;;;;;;;;;;5094302;28;20012;-66
2022/10/22 00:56:20;;;;;;;23.95;15.20;;;;;;;;;;5094160;28;20044;-65
2022/10/22 00:58:55;;;;;;;24.60;15.02;;;;;;;;;;5076373;28;20042;-65
2022/10/22 01:01:22;;;;;;;22.67;14.77;;;;;;;;;;5075958;28;20081;-65
2022/10/22 01:03:48;;;;;;;21.42;14.30;;;;;;;;;;5094385;28;20024;-66
2022/10/22 01:06:18;;;;;;;19.27;13.38;;;;;;;;;;5075962;28;20107;-65
2022/10/22 01:08:47;;;;;;;19.08;13.68;;;;;;;;;;5094086;28;20028;-65
2022/10/22 01:11:28;;;;;;;20.30;13.18;;;;;;;;;;5093970;28;20120;-66
2022/10/22 01:14:16;;;;;;;17.63;12.90;;;;;;;;;;5076213;28;20024;-65
2022/10/22 01:16:49;;;;;;;20.95;14.18;;;;;;;;;;5094127;28;20452;-65
2022/10/22 01:19:18;;;;;;;25.88;16.00;;;;;;;;;;5094074;28;20052;-66
2022/10/22 01:21:45;;;;;;;26.80;16.40;;;;;;;;;;5094102;28;20022;-66
2022/10/22 01:24:31;;;;;;;27.50;16.38;;;;;;;;;;5092438;28;20031;-65
2022/10/22 01:27:01;;;;;;;24.67;16.30;;;;;;;;;;5095362;28;20032;-64
2022/10/22 01:29:29;;;;;;;24.98;15.90;;;;;;;;;;5098275;28;20040;-64
2022/10/22 01:32:00;;;;;;;19.42;13.30;;;;;;;;;;5098045;28;20020;-65
2022/10/22 01:34:27;;;;;;;19.95;14.18;;;;;;;;;;5098027;28;20028;-65
2022/10/22 01:36:53;;;;;;;18.98;13.25;;;;;;;;;;5098178;28;20052;-65
2022/10/22 01:39:19;;;;;;;20.05;13.55;;;;;;;;;;5096992;28;20024;-64
2022/10/22 01:41:44;;;;;;;17.23;13.35;;;;;;;;;;5098074;28;20069;-65
2022/10/22 01:44:27;;;;;;;16.60;12.00;;;;;;;;;;5080166;28;20036;-65
2022/10/22 01:46:57;;;;;;;17.05;12.50;;;;;;;;;;5079936;28;20093;-64
2022/10/22 01:49:47;;;;;;;20.77;12.75;;;;;;;;;;5097856;28;20383;-65
2022/10/22 01:52:19;;;;;;;19.33;12.90;;;;;;;;;;5097563;28;20471;-65
2022/10/22 01:54:50;;;;;;;20.08;13.10;;;;;;;;;;5079168;28;20059;-65
2022/10/22 01:57:23;;;;;;;21.55;13.05;;;;;;;;;;5079614;28;20517;-65
2022/10/22 01:59:56;;;;;;;19.02;13.23;;;;;;;;;;5097737;28;20020;-66
2022/10/22 02:02:44;;;;;;;22.00;13.90;;;;;;;;;;5097026;28;20067;-65
2022/10/22 02:05:16;;;;;;;19.92;13.07;;;;;;;;;;5097078;28;20059;-65
2022/10/22 02:07:51;;;;;;;19.70;13.63;;;;;;;;;;5097736;28;20097;-65
2022/10/22 02:10:17;;;;;;;18.90;12.70;;;;;;;;;;5097687;28;20073;-65
2022/10/22 02:12:43;;;;;;;21.10;13.90;;;;;;;;;;5097697;28;20023;-65
2022/10/22 02:15:10;;;;;;;21.05;13.48;;;;;;;;;;5095944;28;20538;-65
2022/10/22 02:17:37;;;;;;;20.80;13.13;;;;;;;;;;5079208;28;20020;-64
2022/10/22 02:20:06;;;;;;;19.10;12.20;;;;;;;;;;5097161;28;20032;-61
2022/10/22 02:22:32;;;;;;;19.60;12.30;;;;;;;;;;5097382;28;20454;-61
2022/10/22 02:24:57;;;;;;;19.30;12.13;;;;;;;;;;5097273;28;20067;-62
2022/10/22 02:27:31;;;;;;;17.98;11.93;;;;;;;;;;5097199;28;20020;-61
2022/10/22 02:30:17;;;;;;;17.92;11.82;;;;;;;;;;5097213;28;20102;-63
2022/10/22 02:32:47;;;;;;;17.83;10.38;;;;;;;;;;5096665;28;20039;-64
2022/10/22 02:35:13;;;;;;;20.08;10.55;;;;;;;;;;5078687;28;20467;-64
2022/10/22 02:37:39;;;;;;;14.10;9.95;;;;;;;;;;5097381;28;20085;-67
2022/10/22 02:40:05;;;;;;;15.93;10.18;;;;;;;;;;5095926;28;20378;-67
2022/10/22 02:42:31;;;;;;;16.05;9.98;;;;;;;;;;5096884;28;20028;-66
2022/10/22 02:44:56;;;;;;;17.92;10.25;;;;;;;;;;5096580;28;20080;-66
2022/10/22 02:47:21;;;;;;;13.73;10.15;;;;;;;;;;5096787;28;20043;-66
2022/10/22 02:49:47;;;;;;;15.60;9.35;;;;;;;;;;5096834;28;20033;-66
2022/10/22 02:52:12;;;;;;;12.32;9.15;;;;;;;;;;5096501;28;20030;-66
2022/10/22 02:54:37;;;;;;;13.55;9.18;;;;;;;;;;5096720;28;20383;-65
2022/10/22 02:57:03;;;;;;;12.25;8.52;;;;;;;;;;5096612;28;20062;-63
2022/10/22 02:59:28;;;;;;;12.68;9.10;;;;;;;;;;5096698;28;20083;-65
2022/10/22 03:01:53;;;;;;;11.65;8.10;;;;;;;;;;5096497;28;20050;-65
2022/10/22 03:04:19;;;;;;;11.18;8.68;;;;;;;;;;5096139;28;20028;-65
2022/10/22 03:06:47;;;;;;;11.80;8.55;;;;;;;;;;5095990;28;20035;-65
2022/10/22 03:09:12;;;;;;;9.75;7.93;;;;;;;;;;5096201;28;20016;-65
2022/10/22 03:11:38;;;;;;;9.80;7.65;;;;;;;;;;5096169;28;20028;-65
2022/10/22 03:14:03;;;;;;;8.45;7.47;;;;;;;;;;5096559;28;20051;-65
2022/10/22 03:16:28;;;;;;;9.85;7.47;;;;;;;;;;5096542;28;20031;-64
2022/10/22 03:18:55;;;;;;;10.57;7.93;;;;;;;;;;5096263;28;20016;-65
2022/10/22 03:21:39;;;;;;;8.73;7.70;;;;;;;;;;5096045;28;20020;-66
2022/10/22 03:24:07;;;;;;;8.55;7.65;;;;;;;;;;5095761;28;20020;-66
2022/10/22 03:26:33;;;;;;;11.38;7.82;;;;;;;;;;5096160;28;20020;-65
2022/10/22 03:28:59;;;;;;;10.07;7.43;;;;;;;;;;5096140;28;20020;-65
2022/10/22 03:31:25;;;;;;;11.52;7.97;;;;;;;;;;5096030;28;20103;-65
2022/10/22 03:33:50;;;;;;;11.55;8.30;;;;;;;;;;5096027;28;20059;-65
2022/10/22 03:36:15;;;;;;;11.05;8.23;;;;;;;;;;5095604;28;20070;-65
2022/10/22 03:38:41;;;;;;;9.15;7.65;;;;;;;;;;5077419;28;20036;-64
2022/10/22 03:41:06;;;;;;;12.73;8.48;;;;;;;;;;5095553;28;20048;-64
2022/10/22 03:43:36;;;;;;;9.48;8.32;;;;;;;;;;5095760;28;20525;-64
2022/10/22 03:46:01;;;;;;;11.50;8.30;;;;;;;;;;5095871;28;20070;-64
2022/10/22 03:48:27;;;;;;;10.68;7.85;;;;;;;;;;5095918;28;20047;-65
2022/10/22 03:50:52;;;;;;;11.45;8.25;;;;;;;;;;5094922;28;20394;-64
2022/10/22 03:53:18;;;;;;;11.02;8.02;;;;;;;;;;5095166;28;20386;-64
2022/10/22 03:55:43;;;;;;;10.55;8.82;;;;;;;;;;5075877;28;20044;-65
2022/10/22 03:58:09;;;;;;;16.42;9.40;;;;;;;;;;5094628;28;20028;-63
2022/10/22 04:00:34;;;;;;;14.02;9.68;;;;;;;;;;5094392;28;20058;-63
2022/10/22 04:03:00;;;;;;;13.48;9.57;;;;;;;;;;5094529;28;20029;-64
2022/10/22 04:05:25;;;;;;;15.50;10.20;;;;;;;;;;5094089;28;20023;-64
2022/10/22 04:07:51;;;;;;;17.92;11.98;;;;;;;;;;5092907;28;20057;-65
2022/10/22 04:10:16;;;;;;;19.38;11.82;;;;;;;;;;5094614;28;20049;-64
2022/10/22 04:12:42;;;;;;;19.55;11.57;;;;;;;;;;5093746;28;20043;-62
2022/10/22 04:15:07;;;;;;;16.20;10.23;;;;;;;;;;5076346;28;20105;-62
2022/10/22 04:17:36;;;;;;;12.60;8.82;;;;;;;;;;5093846;28;20455;-62
2022/10/22 04:20:03;;;;;;;13.38;8.98;;;;;;;;;;5109552;28;20027;-62
2022/10/22 04:22:28;;;;;;;11.90;9.23;;;;;;;;;;5093494;28;20032;-62
2022/10/22 04:24:55;;;;;;;11.85;8.38;;;;;;;;;;5087625;28;20027;-62
2022/10/22 04:27:20;;;;;;;10.98;8.40;;;;;;;;;;5073040;28;20122;-61
2022/10/22 04:29:45;;;;;;;13.00;8.98;;;;;;;;;;5091624;28;20112;-62
2022/10/22 04:32:11;;;;;;;11.27;8.40;;;;;;;;;;5090112;28;20062;-61
2022/10/22 04:34:36;;;;;;;11.00;8.32;;;;;;;;;;5090440;28;20062;-63
2022/10/22 04:37:02;;;;;;;11.27;7.65;;;;;;;;;;5089659;28;20040;-62
2022/10/22 04:39:27;;;;;;;20.58;13.07;;;;;;;;;;5090785;28;20031;-62
2022/10/22 04:41:53;;;;;;;29.50;18.25;;;;;;;;;;5090776;28;20036;-62
2022/10/22 04:44:19;;;;;;;27.90;17.35;;;;;;;;;;5071983;28;20028;-64
2022/10/22 04:46:44;;;;;;;21.67;14.80;;;;;;;;;;5088802;28;20040;-64
2022/10/22 04:49:10;;;;;;;13.30;9.63;;;;;;;;;;5089495;28;20095;-64
2022/10/22 04:51:38;;;;;;;18.80;12.07;;;;;;;;;;5089352;28;20093;-64
2022/10/22 04:54:03;;;;;;;20.13;14.05;;;;;;;;;;5089272;28;20024;-64
2022/10/22 04:56:29;;;;;;;14.77;10.50;;;;;;;;;;5078531;28;288213;-64
2022/10/22 04:59:02;;;;;;;16.38;9.55;;;;;;;;;;5088999;28;20031;-64
2022/10/22 05:01:31;;;;;;;11.43;9.52;;;;;;;;;;5088994;28;20042;-64
2022/10/22 05:03:58;;;;;;;14.85;10.48;;;;;;;;;;5105520;28;20024;-65
2022/10/22 05:06:28;;;;;;;15.18;10.50;;;;;;;;;;5087953;28;20040;-64
2022/10/22 05:08:54;;;;;;;18.17;12.70;;;;;;;;;;5104723;28;20029;-64
2022/10/22 05:11:21;;;;;;;17.55;11.95;;;;;;;;;;5104884;28;20042;-64
2022/10/22 05:13:46;;;;;;;16.00;11.20;;;;;;;;;;5089632;28;20433;-64
2022/10/22 05:16:12;;;;;;;13.75;10.38;;;;;;;;;;5089723;28;20065;-64
2022/10/22 05:18:38;;;;;;;13.27;9.80;;;;;;;;;;5089553;28;20363;-64
2022/10/22 05:21:07;;;;;;;15.38;10.55;;;;;;;;;;5070813;28;20039;-65
2022/10/22 05:23:32;;;;;;;14.45;10.57;;;;;;;;;;5089134;28;20036;-73
2022/10/22 05:26:00;;;;;;;14.85;9.77;;;;;;;;;;5088490;28;20053;-63
2022/10/22 05:28:25;;;;;;;12.52;9.65;;;;;;;;;;5089669;28;20024;-64
2022/10/22 05:30:58;;;;;;;16.25;11.10;;;;;;;;;;5072193;28;20034;-64
2022/10/22 05:33:23;;;;;;;14.70;10.05;;;;;;;;;;5090899;28;20169;-64
2022/10/22 05:35:49;;;;;;;16.27;9.75;;;;;;;;;;5090099;28;20522;-64
2022/10/22 05:38:15;;;;;;;13.48;9.10;;;;;;;;;;5091470;28;20111;-64
2022/10/22 05:40:40;;;;;;;12.57;9.25;;;;;;;;;;5091310;28;20054;-64
2022/10/22 05:43:05;;;;;;;14.80;10.35;;;;;;;;;;5107346;28;20043;-66
2022/10/22 05:45:34;;;;;;;13.65;10.45;;;;;;;;;;5091003;28;20024;-65
2022/10/22 05:48:00;;;;;;;19.35;12.05;;;;;;;;;;5091136;28;20093;-64
2022/10/22 05:50:25;;;;;;;19.98;13.40;;;;;;;;;;5089551;28;20024;-62
2022/10/22 05:52:50;;;;;;;19.98;13.43;;;;;;;;;;5089484;28;20051;-61
2022/10/22 05:55:16;;;;;;;21.65;14.18;;;;;;;;;;5076667;28;20045;-62
2022/10/22 05:57:41;;;;;;;19.58;12.43;;;;;;;;;;5050365;28;20238;-62
2022/10/22 06:00:07;;;;;;;18.58;11.60;;;;;;;;;;5050040;28;20488;-61
2022/10/22 06:02:32;;;;;;;16.15;11.30;;;;;;;;;;5049078;28;20044;-62
2022/10/22 06:04:58;;;;;;;17.55;11.02;;;;;;;;;;5049150;28;20043;-61
2022/10/22 06:07:24;;;;;;;17.58;11.38;;;;;;;;;;5049592;28;20099;-61
2022/10/22 06:09:50;;;;;;;13.18;9.98;;;;;;;;;;5050357;28;20508;-62
2022/10/22 06:12:15;;;;;;;20.30;12.10;;;;;;;;;;5050318;28;20033;-62
2022/10/22 06:14:40;;;;;;;16.45;11.40;;;;;;;;;;5050886;28;20341;-62
2022/10/22 06:17:06;;;;;;;17.35;11.63;;;;;;;;;;5053850;28;20106;-62
2022/10/22 06:19:31;;;;;;;15.13;10.85;;;;;;;;;;5069055;28;20125;-63
2022/10/22 06:21:57;;;;;;;17.13;11.02;;;;;;;;;;5068781;28;20108;-67
2022/10/22 06:24:22;;;;;;;16.88;10.77;;;;;;;;;;5053353;28;20025;-66
2022/10/22 06:26:51;;;;;;;15.77;10.93;;;;;;;;;;5053201;28;20431;-66
2022/10/22 06:41:26;;;;;;;15.05;12.25;;;;;;;;;;5119632;27;20403;-70
2022/10/22 06:43:52;;;;;;;22.48;15.18;;;;;;;;;;5086634;28;20048;-69
2022/10/22 06:46:18;;;;;;;29.30;16.33;;;;;;;;;;5102821;28;20451;-70
2022/10/22 06:48:47;;;;;;;25.52;15.25;;;;;;;;;;5087845;28;20043;-70
2022/10/22 06:51:13;;;;;;;18.80;12.32;;;;;;;;;;5088207;28;20375;-71
2022/10/22 06:53:39;;;;;;;16.30;12.10;;;;;;;;;;5088176;28;20035;-70
2022/10/22 06:56:05;;;;;;;18.13;11.68;;;;;;;;;;5087193;28;20540;-70
2022/10/22 06:58:30;;;;;;;15.27;10.73;;;;;;;;;;5087858;28;20114;-70
2022/10/22 07:01:03;;;;;;;13.93;9.55;;;;;;;;;;5087276;28;20051;-70
2022/10/22 07:03:28;;;;;;;14.75;9.68;;;;;;;;;;5087932;28;20032;-70
2022/10/22 07:05:58;;;;;;;14.77;10.00;;;;;;;;;;5088190;28;20340;-68
2022/10/22 07:08:23;;;;;;;17.92;10.77;;;;;;;;;;5089787;28;20059;-68
2022/10/22 07:10:49;;;;;;;12.57;8.98;;;;;;;;;;5089056;28;20056;-67
2022/10/22 07:13:14;;;;;;;13.57;9.80;;;;;;;;;;5087828;28;20062;-68
2022/10/22 07:15:42;;;;;;;9.85;7.13;;;;;;;;;;5087715;28;20370;-68
2022/10/22 07:18:07;;;;;;;10.55;7.50;;;;;;;;;;5088160;28;20060;-68
2022/10/22 07:20:32;;;;;;;13.13;8.82;;;;;;;;;;5088582;28;20055;-68
2022/10/22 07:22:58;;;;;;;12.23;9.02;;;;;;;;;;5086471;28;20040;-69
2022/10/22 07:25:23;;;;;;;12.50;8.38;;;;;;;;;;5087089;28;20024;-68
2022/10/22 07:27:48;;;;;;;12.35;8.90;;;;;;;;;;5087512;28;20139;-67
2022/10/22 07:30:15;;;;;;;20.33;13.00;;;;;;;;;;5087285;28;20459;-66
2022/10/22 07:32:40;;;;;;;18.08;11.10;;;;;;;;;;5086963;28;20046;-68
2022/10/22 07:35:08;;;;;;;18.35;11.93;;;;;;;;;;5087790;28;20023;-68
2022/10/22 07:37:34;;;;;;;18.10;12.75;;;;;;;;;;5087495;28;20032;-68
2022/10/22 07:39:59;;;;;;;14.93;10.38;;;;;;;;;;5086462;28;20040;-68
2022/10/22 07:42:24;;;;;;;10.82;9.00;;;;;;;;;;5073213;28;20059;-68
2022/10/22 07:44:49;;;;;;;20.35;12.60;;;;;;;;;;5072987;28;20024;-66
2022/10/22 07:47:16;;;;;;;16.08;11.40;;;;;;;;;;5072923;28;20125;-68
2022/10/22 07:49:41;;;;;;;18.92;12.07;;;;;;;;;;5071711;28;20043;-69
2022/10/22 07:52:07;;;;;;;19.65;12.75;;;;;;;;;;5073434;28;20028;-68
2022/10/22 07:54:32;;;;;;;16.92;12.10;;;;;;;;;;5073025;28;20070;-67
2022/10/22 07:56:57;;;;;;;21.05;12.98;;;;;;;;;;5071043;28;20069;-70
2022/10/22 07:59:23;;;;;;;17.55;13.25;;;;;;;;;;5072630;28;20032;-70
2022/10/22 08:01:48;;;;;;;15.95;12.00;;;;;;;;;;5072811;28;20036;-70
2022/10/22 08:04:13;;;;;;;16.20;11.85;;;;;;;;;;5072748;28;20028;-70
2022/10/22 08:06:40;;;;;;;16.42;11.10;;;;;;;;;;5072644;28;20115;-70
2022/10/22 08:09:05;;;;;;;15.50;11.25;;;;;;;;;;5072857;28;20021;-70
2022/10/22 08:11:32;;;;;;;16.10;9.75;;;;;;;;;;5072412;28;20029;-70
2022/10/22 08:13:58;;;;;;;15.30;10.57;;;;;;;;;;5072658;28;20070;-70
2022/10/22 08:16:24;;;;;;;9.43;8.35;;;;;;;;;;5072669;28;20032;-70
2022/10/22 08:18:50;;;;;;;11.18;8.13;;;;;;;;;;5072431;28;20009;-70
2022/10/22 08:21:16;;;;;;;10.88;7.93;;;;;;;;;;5073805;28;20047;-70
2022/10/22 08:23:41;;;;;;;9.27;7.90;;;;;;;;;;5073485;28;20501;-69
2022/10/22 08:26:07;;;;;;;14.20;9.43;;;;;;;;;;5072802;28;20383;-67
2022/10/22 08:28:35;;;;;;;15.32;9.77;;;;;;;;;;5073023;28;20375;-66
2022/10/22 08:31:03;;;;;;;10.73;9.25;;;;;;;;;;5071884;28;20431;-68
2022/10/22 08:33:28;;;;;;;12.30;8.68;;;;;;;;;;5073513;28;20028;-69
2022/10/22 08:35:55;;;;;;;10.52;8.38;;;;;;;;;;5072793;28;20028;-71
2022/10/22 08:38:20;;;;;;;12.07;8.75;;;;;;;;;;5072169;28;20068;-69
2022/10/22 08:40:48;;;;;;;14.27;9.13;;;;;;;;;;5071673;28;20136;-68
2022/10/22 08:43:38;;;;;;;11.02;7.53;;;;;;;;;;5071718;28;20024;-68
2022/10/22 08:46:03;;;;;;;11.10;7.00;;;;;;;;;;5069967;28;20456;-69
2022/10/22 08:48:40;;;;;;;17.65;11.60;;;;;;;;;;5071076;28;20025;-69
2022/10/22 08:51:09;;;;;;;10.40;8.40;;;;;;;;;;5070437;28;20400;-69
2022/10/22 08:53:41;;;;;;;9.80;6.85;;;;;;;;;;5070630;28;20543;-68
2022/10/22 08:56:06;;;;;;;13.18;7.70;;;;;;;;;;5069589;28;20056;-69
2022/10/22 08:58:39;;;;;;;10.32;6.95;;;;;;;;;;5069471;28;20471;-68
2022/10/22 09:01:08;;;;;;;9.80;7.70;;;;;;;;;;5070279;28;20116;-68
2022/10/22 09:03:53;;;;;;;10.88;7.68;;;;;;;;;;5068524;28;20028;-67
2022/10/22 09:06:30;;;;;;;8.95;8.02;;;;;;;;;;5071304;28;20032;-68
2022/10/22 09:08:57;;;;;;;11.68;7.38;;;;;;;;;;5071243;28;20064;-67
2022/10/22 09:11:36;;;;;;;10.52;7.00;;;;;;;;;;5071228;28;20479;-69
2022/10/22 09:14:02;;;;;;;11.48;7.50;;;;;;;;;;5070375;28;20055;-70
2022/10/22 09:16:41;;;;;;;12.00;8.07;;;;;;;;;;5071066;28;20210;-71
2022/10/22 09:19:16;;;;;;;11.73;7.45;;;;;;;;;;5071196;28;20101;-68
2022/10/22 09:21:45;;;;;;;14.23;9.05;;;;;;;;;;5070637;28;20033;-69
2022/10/22 09:24:23;;;;;;;17.70;10.18;;;;;;;;;;5070864;28;20028;-69
2022/10/22 09:26:49;;;;;;;12.20;7.90;;;;;;;;;;5071063;28;20119;-69
2022/10/22 09:29:19;;;;;;;11.07;8.90;;;;;;;;;;5070895;28;20020;-68
2022/10/22 09:31:45;;;;;;;12.90;7.95;;;;;;;;;;5070813;28;20498;-69
2022/10/22 09:34:18;;;;;;;10.88;7.63;;;;;;;;;;5070675;28;20029;-67
2022/10/22 09:36:43;;;;;;;12.23;7.57;;;;;;;;;;5070972;28;20069;-68
2022/10/22 09:39:28;;;;;;;11.80;7.55;;;;;;;;;;5070079;28;20020;-68
2022/10/22 09:41:53;;;;;;;9.80;7.10;;;;;;;;;;5069321;28;20493;-68
2022/10/22 09:44:19;;;;;;;12.88;6.68;;;;;;;;;;5071847;28;20112;-69
2022/10/22 09:46:45;;;;;;;10.25;6.90;;;;;;;;;;5071460;28;20064;-69
2022/10/22 09:49:30;;;;;;;11.48;7.10;;;;;;;;;;5071566;28;20665;-69
2022/10/22 09:51:57;;;;;;;12.40;8.75;;;;;;;;;;5070213;28;20054;-69
2022/10/22 09:54:31;;;;;;;9.18;6.90;;;;;;;;;;5067857;28;20444;-68
2022/10/22 09:57:02;;;;;;;10.35;8.15;;;;;;;;;;5070258;28;20032;-69
2022/10/22 09:59:31;;;;;;;10.63;7.43;;;;;;;;;;5070363;28;20081;-70
2022/10/22 10:01:58;;;;;;;11.03;7.90;;;;;;;;;;5070696;28;20436;-69
2022/10/22 10:04:24;;;;;;;11.43;7.35;;;;;;;;;;5069876;28;20103;-69
2022/10/22 10:06:53;;;;;;;9.32;6.53;;;;;;;;;;5068101;28;20114;-68
2022/10/22 10:09:23;;;;;;;13.85;8.13;;;;;;;;;;5069639;28;20039;-67
2022/10/22 10:12:04;;;;;;;10.73;7.43;;;;;;;;;;5069546;28;20111;-68
2022/10/22 10:14:40;;;;;;;20.08;11.05;;;;;;;;;;5071389;28;20051;-67
2022/10/22 10:17:24;;;;;;;16.23;10.32;;;;;;;;;;5070949;28;20104;-68
2022/10/22 10:20:02;;;;;;;12.18;7.45;;;;;;;;;;5070930;28;20447;-68
2022/10/22 10:22:38;;;;;;;11.52;6.82;;;;;;;;;;5071519;28;20028;-69
2022/10/22 10:25:07;;;;;;;10.02;6.15;;;;;;;;;;5071001;28;20036;-68
2022/10/22 10:27:32;;;;;;;8.70;6.63;;;;;;;;;;5071399;28;20048;-68
2022/10/22 10:30:00;;;;;;;9.32;6.55;;;;;;;;;;5071395;28;20076;-69
2022/10/22 10:32:47;;;;;;;9.63;7.10;;;;;;;;;;5069862;28;20019;-68
2022/10/22 10:35:18;;;;;;;12.80;7.43;;;;;;;;;;5071455;28;20757;-68
2022/10/22 10:38:04;;;;;;;12.57;8.20;;;;;;;;;;5069480;28;20175;-68
2022/10/22 10:40:30;;;;;;;11.55;8.00;;;;;;;;;;5069705;28;20036;-67
2022/10/22 10:42:59;;;;;;;14.20;9.27;;;;;;;;;;5070302;28;20402;-69
2022/10/22 10:45:43;;;;;;;13.63;9.00;;;;;;;;;;5070512;28;20064;-68
2022/10/22 10:48:27;;;;;;;12.32;8.43;;;;;;;;;;5068215;28;20033;-68
2022/10/22 10:51:01;;;;;;;12.30;7.65;;;;;;;;;;5070054;28;20036;-67
2022/10/22 10:53:36;;;;;;;9.70;7.18;;;;;;;;;;5065238;28;20120;-70
2022/10/22 10:56:24;;;;;;;9.75;6.57;;;;;;;;;;5068854;28;20020;-70
2022/10/22 10:58:58;;;;;;;8.00;6.70;;;;;;;;;;5068426;28;20056;-71
2022/10/22 11:01:24;;;;;;;9.13;6.75;;;;;;;;;;5068546;28;20134;-70
2022/10/22 11:03:50;;;;;;;13.27;7.00;;;;;;;;;;5067690;28;20032;-70
2022/10/22 11:06:18;;;;;;;9.40;6.68;;;;;;;;;;5068939;28;20033;-68
2022/10/22 11:08:53;;;;;;;10.82;6.82;;;;;;;;;;5069791;28;20021;-67
2022/10/22 11:11:19;;;;;;;9.30;7.07;;;;;;;;;;5062714;28;20032;-67
2022/10/22 11:13:50;;;;;;;12.75;8.73;;;;;;;;;;5067463;28;20357;-69
2022/10/22 11:16:23;;;;;;;13.95;9.55;;;;;;;;;;5069518;28;20379;-68
2022/10/22 11:18:52;;;;;;;16.45;11.35;;;;;;;;;;5071706;28;20115;-68
2022/10/22 11:21:30;;;;;;;26.65;14.25;;;;;;;;;;5073178;28;20024;-70
2022/10/22 11:24:02;;;;;;;22.15;14.68;;;;;;;;;;5071602;28;20040;-71
2022/10/22 11:26:36;;;;;;;23.55;14.20;;;;;;;;;;5071145;28;20029;-71
2022/10/22 11:29:04;;;;;;;16.08;11.75;;;;;;;;;;5072802;28;20027;-70
2022/10/22 11:31:30;;;;;;;18.13;10.98;;;;;;;;;;5072443;28;20016;-71
2022/10/22 11:34:16;;;;;;;18.15;12.57;;;;;;;;;;5070515;28;20044;-71
2022/10/22 11:36:42;;;;;;;30.20;17.77;;;;;;;;;;5069229;28;20091;-70
2022/10/22 11:39:26;;;;;;;24.70;17.33;;;;;;;;;;5071672;28;20051;-69
2022/10/22 11:41:52;;;;;;;19.33;12.98;;;;;;;;;;5073345;28;20035;-68
2022/10/22 11:44:22;;;;;;;18.30;13.45;;;;;;;;;;5071260;28;20033;-69
2022/10/22 11:46:58;;;;;;;19.05;12.88;;;;;;;;;;5072586;28;20032;-67
2022/10/22 11:49:26;;;;;;;21.35;13.93;;;;;;;;;;5071060;28;20036;-69
2022/10/22 11:52:05;;;;;;;19.83;13.80;;;;;;;;;;5072410;28;20491;-68
2022/10/22 11:54:33;;;;;;;18.85;13.00;;;;;;;;;;5072601;28;20104;-70
2022/10/22 11:57:13;;;;;;;15.25;11.77;;;;;;;;;;5071561;28;20150;-68
2022/10/22 11:59:39;;;;;;;;;;;;;;;;;;5072485;28;20081;-68
2022/10/22 12:02:21;;;;;;;21.08;13.57;;;;;;;;;;5071446;28;20416;-68
2022/10/22 12:04:47;;;;;;;18.55;13.25;;;;;;;;;;5070303;28;20085;-68
2022/10/22 12:07:30;;;;;;;19.95;13.50;;;;;;;;;;5070211;28;20024;-69
2022/10/22 12:09:56;;;;;;;21.27;14.00;;;;;;;;;;5068860;28;20032;-68
2022/10/22 12:12:22;;;;;;;28.70;16.20;;;;;;;;;;5073371;28;20090;-69
2022/10/22 12:14:57;;;;;;;29.00;16.88;;;;;;;;;;5072592;28;20040;-68
2022/10/22 12:17:23;;;;;;;24.20;15.13;;;;;;;;;;5071930;28;20467;-67
2022/10/22 12:19:50;;;;;;;22.48;14.35;;;;;;;;;;5072956;28;20024;-68
2022/10/22 12:22:20;;;;;;;22.63;13.68;;;;;;;;;;5072822;28;20464;-69
2022/10/22 12:24:48;;;;;;;18.08;12.18;;;;;;;;;;5070666;28;20734;-69
2022/10/22 12:27:16;;;;;;;25.45;15.70;;;;;;;;;;5071497;28;20063;-70
2022/10/22 12:29:41;;;;;;;36.03;22.02;;;;;;;;;;5069089;28;20484;-70
2022/10/22 12:32:10;;;;;;;39.10;23.42;;;;;;;;;;5069791;28;20055;-70
2022/10/22 12:34:43;;;;;;;34.72;22.20;;;;;;;;;;5069048;28;20032;-71
2022/10/22 12:37:09;;;;;;;38.55;24.85;;;;;;;;;;5067869;28;20033;-70
2022/10/22 12:39:35;;;;;;;41.13;26.33;;;;;;;;;;5068082;28;20044;-70
2022/10/22 12:42:03;;;;;;;30.73;20.73;;;;;;;;;;5067645;28;20041;-70
2022/10/22 12:44:31;;;;;;;28.38;19.63;;;;;;;;;;5067642;28;20025;-70
2022/10/22 12:46:57;;;;;;;28.05;19.02;;;;;;;;;;5067960;28;20032;-68
2022/10/22 12:49:43;;;;;;;19.60;13.52;;;;;;;;;;5067760;28;20081;-69
2022/10/22 12:52:12;;;;;;;21.27;14.52;;;;;;;;;;5067805;28;20075;-67
2022/10/22 12:54:38;;;;;;;26.75;18.25;;;;;;;;;;5067785;28;20036;-69
2022/10/22 12:57:04;;;;;;;23.05;15.25;;;;;;;;;;5066975;28;20065;-70
2022/10/22 12:59:34;;;;;;;21.23;14.75;;;;;;;;;;5070825;28;20037;-69
2022/10/22 13:02:00;;;;;;;22.20;16.92;;;;;;;;;;5071629;28;20111;-69
2022/10/22 13:04:25;;;;;;;29.70;17.42;;;;;;;;;;5071604;28;20100;-67
2022/10/22 13:07:02;;;;;;;26.85;17.33;;;;;;;;;;5070672;28;20040;-69
2022/10/22 13:09:36;;;;;;;31.50;19.10;;;;;;;;;;5070399;28;20040;-68
2022/10/22 13:12:03;;;;;;;31.63;19.52;;;;;;;;;;5069620;28;20545;-68
2022/10/22 13:14:33;;;;;;;31.48;21.55;;;;;;;;;;5069160;28;20029;-69
2022/10/22 13:17:06;;;;;;;35.22;22.75;;;;;;;;;;5068177;28;20481;-68
2022/10/22 13:19:38;;;;;;;35.80;23.95;;;;;;;;;;5070059;28;20151;-67
2022/10/22 13:22:04;;;;;;;34.28;25.17;;;;;;;;;;5067263;28;20111;-69
2022/10/22 13:24:29;;;;;;;38.50;24.63;;;;;;;;;;5068237;28;20135;-69
2022/10/22 13:26:55;;;;;;;39.17;25.20;;;;;;;;;;5067063;28;20060;-69
2022/10/22 13:29:21;;;;;;;48.83;29.52;;;;;;;;;;5068788;28;20025;-70
2022/10/22 13:31:48;;;;;;;48.95;32.92;;;;;;;;;;5069538;28;20520;-70
2022/10/22 13:34:15;;;;;;;44.72;29.33;;;;;;;;;;5068277;28;20027;-71
2022/10/22 13:36:41;;;;;;;50.05;33.50;;;;;;;;;;5068365;28;20125;-71
2022/10/22 13:39:11;;;;;;;43.80;28.73;;;;;;;;;;5069499;28;20448;-71
2022/10/22 13:41:37;;;;;;;35.72;22.40;;;;;;;;;;5069555;28;20195;-70
2022/10/22 13:44:02;;;;;;;28.20;19.35;;;;;;;;;;5069898;28;20107;-70
2022/10/22 13:46:28;;;;;;;32.50;24.15;;;;;;;;;;5070786;28;20082;-70
2022/10/22 13:48:54;;;;;;;50.97;32.70;;;;;;;;;;5069637;28;20535;-70
2022/10/22 13:51:26;;;;;;;37.38;23.63;;;;;;;;;;5070811;28;20020;-70
2022/10/22 13:53:52;;;;;;;26.95;19.77;;;;;;;;;;5070341;28;20127;-70
2022/10/22 13:56:18;;;;;;;34.55;23.05;;;;;;;;;;5070836;28;20066;-70
2022/10/22 13:58:45;;;;;;;32.97;24.08;;;;;;;;;;5071518;28;20032;-70
2022/10/22 14:01:17;;;;;;;31.48;22.33;;;;;;;;;;5071084;28;20024;-71
2022/10/22 14:03:42;;;;;;;24.25;17.70;;;;;;;;;;5070744;28;20028;-71
2022/10/22 14:06:12;;;;;;;27.55;19.00;;;;;;;;;;5070633;28;20031;-70
2022/10/22 14:08:37;;;;;;;21.52;14.68;;;;;;;;;;5071008;28;20410;-71
2022/10/22 14:11:02;;;;;;;19.77;13.63;;;;;;;;;;5070812;28;20029;-70
2022/10/22 14:13:28;;;;;;;22.30;16.13;;;;;;;;;;5070781;28;20112;-70
2022/10/22 14:15:53;;;;;;;21.08;15.30;;;;;;;;;;5069308;28;20024;-70
2022/10/22 14:18:24;;;;;;;21.25;15.50;;;;;;;;;;5070996;28;20363;-70
2022/10/22 14:20:50;;;;;;;;;;;;;;;;;;5071241;28;20078;-70
2022/10/22 14:23:18;;;;;;;23.20;17.95;;;;;;;;;;5070889;28;19978;-70
2022/10/22 14:25:43;;;;;;;25.90;17.92;;;;;;;;;;5070118;28;20115;-70
2022/10/22 14:28:12;;;;;;;27.50;19.08;;;;;;;;;;5070802;28;20104;-70
2022/10/22 14:30:40;;;;;;;21.20;14.48;;;;;;;;;;5070594;28;20024;-70
2022/10/22 14:33:14;;;;;;;21.48;16.25;;;;;;;;;;5070103;28;20021;-70
2022/10/22 14:35:39;;;;;;;20.95;13.25;;;;;;;;;;5069683;28;20483;-70
2022/10/22 14:38:04;;;;;;;20.30;15.32;;;;;;;;;;5069745;28;20047;-71
2022/10/22 14:40:30;;;;;;;18.58;13.05;;;;;;;;;;5069377;28;20047;-70
2022/10/22 14:42:56;;;;;;;19.95;13.50;;;;;;;;;;5069273;28;20076;-71